Time;durP1;ratioP1;P1;durP2;ratioP2;P2;SDS_P1;SDS_P2;PMS_P1;PMS_P2;Temp;Humidity;BMP_temperature;BMP_pressure;BME280_temperature;BME280_humidity;BME280_pressure;Samples;Min_cycle;Max_cycle;Signal;HPM_P1;HPM_P2
2023/10/19 00:02:05;;;;;;;;;;;19.80;74.70;;;;;;5009656;27;89717;-38
2023/10/19 00:04:32;;;;;;;;;;;19.80;74.70;;;;;;5001484;27;89471;-38
2023/10/19 00:06:58;;;;;;;;;;;19.80;74.70;;;;;;5007450;27;91122;-40
2023/10/19 00:09:25;;;;;;;;;;;19.80;74.70;;;;;;5013420;27;89385;-38
2023/10/19 00:11:51;;;;;;;;;;;19.80;74.60;;;;;;5005952;27;92728;-38
2023/10/19 00:14:17;;;;;;;;;;;19.80;74.60;;;;;;5014157;27;88679;-38
2023/10/19 00:16:50;;;;;;;;;;;19.80;74.60;;;;;;5009432;27;89561;-38
2023/10/19 00:19:19;;;;;;;;;;;19.80;74.60;;;;;;5008357;27;90239;-38
2023/10/19 00:21:51;;;;;;;;;;;19.80;74.60;;;;;;4993701;27;92571;-38
2023/10/19 00:24:18;;;;;;;;;;;19.80;74.60;;;;;;4992183;27;90966;-39
2023/10/19 00:26:44;;;;;;;;;;;19.70;74.50;;;;;;5003672;27;89613;-38
2023/10/19 00:29:30;;;;;;;;;;;19.70;74.50;;;;;;5008867;27;90022;-39
2023/10/19 00:31:56;;;;;;;;;;;19.80;74.50;;;;;;5012852;27;90161;-39
2023/10/19 00:34:22;;;;;;;;;;;19.70;74.50;;;;;;5009895;27;92399;-38
2023/10/19 00:36:50;;;;;;;;;;;19.70;74.50;;;;;;5010549;27;89477;-38
2023/10/19 00:39:20;;;;;;;;;;;19.70;74.50;;;;;;5008251;27;89441;-39
2023/10/19 00:41:46;;;;;;;;;;;19.70;74.50;;;;;;5012422;27;89920;-38
2023/10/19 00:44:15;;;;;;;;;;;19.70;74.60;;;;;;5006028;27;91389;-38
2023/10/19 00:49:07;;;;;;;;;;;19.70;74.60;;;;;;5016529;27;89778;-38
2023/10/19 00:54:01;;;;;;;;;;;19.70;74.50;;;;;;5012580;27;90378;-38
2023/10/19 00:56:31;;;;;;;;;;;19.70;74.40;;;;;;5010415;27;89073;-38
2023/10/19 00:59:00;;;;;;;;;;;19.70;74.30;;;;;;4994442;27;89728;-38
2023/10/19 01:01:28;;;;;;;;;;;19.70;74.40;;;;;;5009628;27;89319;-38
2023/10/19 01:03:56;;;;;;;;;;;19.70;74.40;;;;;;5013276;27;89308;-38
2023/10/19 01:06:22;;;;;;;;;;;19.70;74.30;;;;;;5012351;27;90698;-38
2023/10/19 01:08:50;;;;;;;;;;;19.70;74.30;;;;;;5014416;27;91643;-38
2023/10/19 01:11:19;;;;;;;;;;;19.70;74.30;;;;;;5015660;27;92136;-39
2023/10/19 01:13:46;;;;;;;;;;;19.60;74.30;;;;;;5003754;27;89342;-38
2023/10/19 01:16:20;;;;;;;;;;;19.60;74.30;;;;;;5013857;27;90405;-40
2023/10/19 01:18:46;;;;;;;;;;;19.60;74.30;;;;;;5010875;27;91450;-38
2023/10/19 01:21:11;;;;;;;;;;;19.60;74.30;;;;;;5017084;27;89785;-38
2023/10/19 01:23:39;;;;;;;;;;;19.60;74.40;;;;;;5008491;27;89487;-38
2023/10/19 01:26:07;;;;;;;;;;;19.60;74.40;;;;;;5016013;27;91733;-39
2023/10/19 01:31:13;;;;;;;;;;;19.60;74.50;;;;;;5012463;27;92614;-38
2023/10/19 01:33:40;;;;;;;;;;;19.60;74.50;;;;;;5013028;27;90511;-39
2023/10/19 01:36:11;;;;;;;;;;;19.60;74.40;;;;;;5016641;27;90438;-39
2023/10/19 01:38:37;;;;;;;;;;;19.60;74.40;;;;;;5016268;27;89470;-39
2023/10/19 01:41:13;;;;;;;;;;;19.60;74.40;;;;;;5013863;27;89474;-39
2023/10/19 01:43:42;;;;;;;;;;;19.60;74.50;;;;;;5003435;27;90293;-39
2023/10/19 01:46:21;;;;;;;;;;;19.60;74.40;;;;;;5013466;27;89527;-39
2023/10/19 01:48:48;;;;;;;;;;;19.60;74.40;;;;;;5001454;27;89676;-39
2023/10/19 01:51:14;;;;;;;;;;;19.60;74.40;;;;;;5013440;27;91419;-39
2023/10/19 01:53:46;;;;;;;;;;;19.60;74.40;;;;;;5014763;27;89257;-38
2023/10/19 01:56:12;;;;;;;;;;;19.60;74.40;;;;;;5011007;27;88857;-38
2023/10/19 01:58:39;;;;;;;;;;;19.50;74.40;;;;;;5015414;27;89567;-38
2023/10/19 02:03:41;;;;;;;;;;;19.50;74.40;;;;;;5008953;27;90232;-38
2023/10/19 02:06:17;;;;;;;;;;;19.50;74.30;;;;;;5013993;27;90483;-38
2023/10/19 02:08:45;;;;;;;;;;;19.50;74.30;;;;;;5009235;27;90058;-38
2023/10/19 02:11:19;;;;;;;;;;;19.50;74.40;;;;;;5014019;27;89833;-40
2023/10/19 02:13:49;;;;;;;;;;;19.50;74.40;;;;;;5006951;27;90514;-38
2023/10/19 02:16:16;;;;;;;;;;;19.50;74.40;;;;;;5013380;27;89412;-39
2023/10/19 02:18:42;;;;;;;;;;;19.50;74.40;;;;;;5007264;27;89700;-38
2023/10/19 02:21:07;;;;;;;;;;;19.50;74.40;;;;;;5014076;27;89427;-42
2023/10/19 02:23:36;;;;;;;;;;;19.50;74.40;;;;;;5005702;27;89613;-41
2023/10/19 02:26:03;;;;;;;;;;;19.50;74.40;;;;;;5011276;27;96956;-40
2023/10/19 02:28:37;;;;;;;;;;;19.50;74.40;;;;;;5010689;27;91679;-40
2023/10/19 02:31:18;;;;;;;;;;;19.50;74.40;;;;;;5012808;27;91017;-41
2023/10/19 02:33:45;;;;;;;;;;;19.50;74.30;;;;;;5009114;27;89372;-40
2023/10/19 02:36:16;;;;;;;;;;;19.40;74.40;;;;;;5016637;27;89557;-41
2023/10/19 02:38:44;;;;;;;;;;;19.50;74.50;;;;;;5011694;27;90171;-40
2023/10/19 02:41:09;;;;;;;;;;;19.40;74.40;;;;;;5009422;27;93022;-40
2023/10/19 02:43:36;;;;;;;;;;;19.40;74.40;;;;;;5008618;27;89314;-42
2023/10/19 02:46:03;;;;;;;;;;;19.40;74.30;;;;;;5015093;27;89963;-43
2023/10/19 02:48:28;;;;;;;;;;;19.40;74.40;;;;;;5009028;27;89630;-41
2023/10/19 02:50:54;;;;;;;;;;;19.40;74.50;;;;;;5015267;27;91517;-41
2023/10/19 02:53:19;;;;;;;;;;;19.40;74.50;;;;;;5009715;27;90381;-41
2023/10/19 02:55:45;;;;;;;;;;;19.50;74.50;;;;;;5008500;27;93859;-41
2023/10/19 02:58:11;;;;;;;;;;;19.40;74.50;;;;;;5009711;27;89794;-41
2023/10/19 03:00:37;;;;;;;;;;;19.40;74.40;;;;;;5012112;27;90101;-42
2023/10/19 03:03:05;;;;;;;;;;;19.40;74.40;;;;;;5010952;27;90169;-41
2023/10/19 03:05:30;;;;;;;;;;;19.40;74.50;;;;;;5012663;27;91754;-40
2023/10/19 03:07:56;;;;;;;;;;;19.40;74.40;;;;;;5010462;27;88812;-43
2023/10/19 03:10:34;;;;;;;;;;;19.40;74.30;;;;;;5010688;27;89563;-41
2023/10/19 03:13:04;;;;;;;;;;;19.40;74.30;;;;;;5008747;27;91102;-40
2023/10/19 03:15:33;;;;;;;;;;;19.40;74.30;;;;;;5009422;27;90648;-40
2023/10/19 03:18:00;;;;;;;;;;;19.40;74.40;;;;;;5013440;27;89896;-42
2023/10/19 03:20:27;;;;;;;;;;;19.40;74.40;;;;;;5005363;27;89432;-43
2023/10/19 03:22:52;;;;;;;;;;;19.40;74.30;;;;;;5012487;27;89647;-40
2023/10/19 03:28:11;;;;;;;;;;;19.40;74.30;;;;;;5003436;27;92448;-41
2023/10/19 03:30:38;;;;;;;;;;;19.40;74.30;;;;;;5009927;27;90280;-41
2023/10/19 03:33:04;;;;;;;;;;;19.40;74.20;;;;;;5011980;27;88510;-39
2023/10/19 03:35:30;;;;;;;;;;;19.40;74.30;;;;;;5017856;27;91196;-38
2023/10/19 03:37:58;;;;;;;;;;;19.30;74.40;;;;;;5012050;27;92112;-39
2023/10/19 03:40:34;;;;;;;;;;;19.30;74.40;;;;;;5008593;27;91885;-39
2023/10/19 03:42:59;;;;;;;;;;;19.30;74.60;;;;;;5012084;27;91063;-38
2023/10/19 03:45:26;;;;;;;;;;;19.30;74.60;;;;;;5009802;27;89488;-38
2023/10/19 03:47:55;;;;;;;;;;;19.30;74.60;;;;;;5011709;27;90131;-38
2023/10/19 03:50:21;;;;;;;;;;;19.40;74.60;;;;;;5012411;27;90939;-38
2023/10/19 03:52:47;;;;;;;;;;;19.30;74.60;;;;;;5012314;27;89763;-39
2023/10/19 03:55:18;;;;;;;;;;;19.30;74.60;;;;;;5011187;27;89421;-38
2023/10/19 03:57:47;;;;;;;;;;;19.30;74.70;;;;;;5008771;27;88899;-39
2023/10/19 04:00:19;;;;;;;;;;;19.30;74.70;;;;;;5013002;27;89995;-38
2023/10/19 04:02:45;;;;;;;;;;;19.20;74.90;;;;;;5004217;27;92136;-40
2023/10/19 04:05:14;;;;;;;;;;;19.20;74.90;;;;;;5012206;27;90336;-38
2023/10/19 04:07:41;;;;;;;;;;;19.20;74.90;;;;;;5008063;27;90306;-39
2023/10/19 04:12:35;;;;;;;;;;;19.30;75.50;;;;;;5010092;27;90203;-38
2023/10/19 04:15:16;;;;;;;;;;;19.30;74.90;;;;;;5011315;27;89964;-38
2023/10/19 04:17:45;;;;;;;;;;;19.30;74.90;;;;;;5012840;27;91313;-38
2023/10/19 04:22:43;;;;;;;;;;;19.20;74.90;;;;;;5011509;27;89029;-38
2023/10/19 04:25:12;;;;;;;;;;;19.20;75.00;;;;;;5006991;27;90263;-38
2023/10/19 04:27:42;;;;;;;;;;;19.20;75.10;;;;;;5005003;27;90033;-38
2023/10/19 04:30:16;;;;;;;;;;;19.20;75.10;;;;;;5001682;27;91105;-39
2023/10/19 04:32:46;;;;;;;;;;;19.20;75.10;;;;;;4986372;27;91805;-39
2023/10/19 04:35:14;;;;;;;;;;;19.20;75.10;;;;;;5008688;27;89906;-38
2023/10/19 04:37:44;;;;;;;;;;;19.20;75.00;;;;;;5006534;27;89557;-38
2023/10/19 04:40:10;;;;;;;;;;;19.20;75.00;;;;;;5008459;27;89598;-37
2023/10/19 04:42:36;;;;;;;;;;;19.20;74.90;;;;;;5000344;27;89427;-42
2023/10/19 04:45:02;;;;;;;;;;;19.20;75.00;;;;;;5013169;27;90741;-41
2023/10/19 04:47:28;;;;;;;;;;;19.20;75.00;;;;;;5008417;27;89048;-40
2023/10/19 04:49:53;;;;;;;;;;;19.20;74.90;;;;;;5010459;27;89364;-44
2023/10/19 04:52:19;;;;;;;;;;;19.20;75.20;;;;;;5011889;27;90238;-42
2023/10/19 04:54:44;;;;;;;;;;;19.20;75.10;;;;;;5008956;27;90860;-43
2023/10/19 04:57:10;;;;;;;;;;;19.20;75.50;;;;;;4995694;28;89584;-41
2023/10/19 04:59:36;;;;;;;;;;;19.30;75.50;;;;;;5012695;27;94276;-41
2023/10/19 05:02:01;;;;;;;;;;;19.30;75.60;;;;;;5009829;27;89483;-40
2023/10/19 05:04:27;;;;;;;;;;;19.30;75.60;;;;;;5007149;27;89389;-41
2023/10/19 05:06:53;;;;;;;;;;;19.30;75.60;;;;;;5009032;27;89934;-42
2023/10/19 05:09:19;;;;;;;;;;;19.30;75.70;;;;;;5012178;27;92600;-40
2023/10/19 05:11:45;;;;;;;;;;;19.20;75.90;;;;;;5009864;27;90742;-40
2023/10/19 05:14:14;;;;;;;;;;;19.20;75.90;;;;;;5005936;27;94889;-42
2023/10/19 05:16:39;;;;;;;;;;;19.30;75.80;;;;;;5011818;27;90228;-45
2023/10/19 05:19:05;;;;;;;;;;;19.20;75.90;;;;;;5006824;27;92418;-42
2023/10/19 05:21:30;;;;;;;;;;;19.20;75.90;;;;;;5006760;27;91160;-42
2023/10/19 05:23:56;;;;;;;;;;;19.20;76.00;;;;;;5006534;27;93704;-41
2023/10/19 05:26:22;;;;;;;;;;;19.30;75.80;;;;;;5009529;27;90157;-40
2023/10/19 05:28:48;;;;;;;;;;;19.20;75.70;;;;;;5004047;27;90901;-40
2023/10/19 05:31:14;;;;;;;;;;;19.20;75.40;;;;;;5015378;27;89728;-39
2023/10/19 05:33:40;;;;;;;;;;;19.20;75.60;;;;;;5006395;27;91136;-41
2023/10/19 05:36:06;;;;;;;;;;;19.20;75.50;;;;;;4989179;27;88816;-41
2023/10/19 05:38:32;;;;;;;;;;;19.30;75.60;;;;;;5010743;27;94803;-40
2023/10/19 05:40:59;;;;;;;;;;;19.20;75.80;;;;;;5004237;27;89105;-42
2023/10/19 05:43:25;;;;;;;;;;;19.20;75.90;;;;;;4996946;27;91195;-40
2023/10/19 05:45:51;;;;;;;;;;;19.20;76.30;;;;;;5016314;27;89841;-41
2023/10/19 05:48:16;;;;;;;;;;;19.10;76.50;;;;;;5015831;27;90326;-40
2023/10/19 05:50:42;;;;;;;;;;;19.10;76.40;;;;;;5013897;27;89521;-40
2023/10/19 05:53:08;;;;;;;;;;;19.10;76.50;;;;;;5011414;27;89575;-40
2023/10/19 05:55:35;;;;;;;;;;;19.10;76.50;;;;;;5020999;27;90089;-41
2023/10/19 05:58:04;;;;;;;;;;;19.10;76.60;;;;;;5010588;27;89532;-40
2023/10/19 06:00:30;;;;;;;;;;;19.10;76.60;;;;;;5015195;27;91938;-40
2023/10/19 06:02:56;;;;;;;;;;;19.10;76.50;;;;;;5008536;27;90057;-44
2023/10/19 06:05:21;;;;;;;;;;;19.10;76.50;;;;;;5014685;27;89358;-40
2023/10/19 06:07:47;;;;;;;;;;;19.10;76.50;;;;;;5010151;27;91657;-41
2023/10/19 06:10:17;;;;;;;;;;;19.10;76.50;;;;;;5016388;27;89424;-40
2023/10/19 06:12:43;;;;;;;;;;;19.10;76.40;;;;;;5013121;27;90375;-41
2023/10/19 06:15:10;;;;;;;;;;;19.10;76.50;;;;;;5012312;27;90306;-40
2023/10/19 06:17:40;;;;;;;;;;;19.10;76.40;;;;;;5007835;27;90258;-41
2023/10/19 06:20:19;;;;;;;;;;;19.10;76.30;;;;;;5013171;27;89528;-40
2023/10/19 06:22:50;;;;;;;;;;;19.10;76.30;;;;;;5011318;27;89872;-41
2023/10/19 06:25:17;;;;;;;;;;;19.10;76.30;;;;;;5020695;27;88843;-41
2023/10/19 06:27:43;;;;;;;;;;;19.10;76.40;;;;;;5007389;27;90625;-41
2023/10/19 06:30:10;;;;;;;;;;;19.10;76.30;;;;;;5004670;27;90675;-41
2023/10/19 06:32:36;;;;;;;;;;;19.10;76.30;;;;;;5011300;27;90441;-40
2023/10/19 06:35:02;;;;;;;;;;;19.00;76.50;;;;;;5007032;27;91081;-39
2023/10/19 06:37:28;;;;;;;;;;;19.00;76.50;;;;;;4996608;27;90822;-41
2023/10/19 06:39:53;;;;;;;;;;;19.10;76.60;;;;;;4997367;27;89494;-41
2023/10/19 06:42:19;;;;;;;;;;;19.10;76.90;;;;;;4999104;27;89598;-42
2023/10/19 06:44:44;;;;;;;;;;;19.10;77.10;;;;;;5005485;27;89441;-41
2023/10/19 06:47:10;;;;;;;;;;;19.20;77.60;;;;;;5007901;27;89884;-41
2023/10/19 06:49:36;;;;;;;;;;;19.20;77.80;;;;;;5008661;27;90062;-43
2023/10/19 06:52:04;;;;;;;;;;;19.20;77.80;;;;;;5003797;27;92829;-40
2023/10/19 06:54:30;;;;;;;;;;;19.20;77.80;;;;;;5005618;27;90387;-39
2023/10/19 06:56:56;;;;;;;;;;;19.30;77.60;;;;;;5000092;27;93685;-41
2023/10/19 06:59:21;;;;;;;;;;;19.30;77.20;;;;;;5005832;27;90180;-44
2023/10/19 07:01:47;;;;;;;;;;;19.30;77.10;;;;;;5008185;27;89926;-42
2023/10/19 07:04:13;;;;;;;;;;;19.30;77.00;;;;;;5015284;27;89748;-40
2023/10/19 07:06:38;;;;;;;;;;;19.30;76.90;;;;;;5004183;27;89685;-42
2023/10/19 07:09:05;;;;;;;;;;;19.30;76.70;;;;;;5003380;27;89973;-41
2023/10/19 07:11:32;;;;;;;;;;;19.30;76.60;;;;;;5011028;27;92477;-43
2023/10/19 07:13:57;;;;;;;;;;;19.30;76.60;;;;;;5014516;27;89988;-42
2023/10/19 07:16:23;;;;;;;;;;;19.40;76.60;;;;;;5018177;27;90096;-42
2023/10/19 07:18:49;;;;;;;;;;;19.40;76.60;;;;;;5015554;27;90725;-43
2023/10/19 07:21:17;;;;;;;;;;;19.40;76.50;;;;;;5009138;27;90523;-44
2023/10/19 07:23:45;;;;;;;;;;;19.40;76.30;;;;;;5015050;27;89564;-40
2023/10/19 07:26:13;;;;;;;;;;;19.40;76.20;;;;;;5008320;27;90242;-41
2023/10/19 07:28:39;;;;;;;;;;;19.40;76.00;;;;;;5010420;27;90802;-47
2023/10/19 07:31:09;;;;;;;;;;;19.40;76.10;;;;;;5010398;27;91007;-40
2023/10/19 07:33:38;;;;;;;;;;;19.50;76.10;;;;;;5008727;27;91104;-40
2023/10/19 07:36:08;;;;;;;;;;;19.50;76.60;;;;;;5014383;27;90317;-42
2023/10/19 07:38:34;;;;;;;;;;;19.50;75.90;;;;;;5009938;27;89537;-40
2023/10/19 07:41:00;;;;;;;;;;;19.60;76.40;;;;;;5011793;27;89487;-43
2023/10/19 07:43:27;;;;;;;;;;;19.60;76.20;;;;;;5003806;27;89967;-43
2023/10/19 07:45:52;;;;;;;;;;;19.60;76.20;;;;;;4990636;27;93087;-44
2023/10/19 07:48:18;;;;;;;;;;;19.60;76.20;;;;;;5008054;27;94139;-46
2023/10/19 07:50:44;;;;;;;;;;;19.60;76.20;;;;;;5011866;27;89502;-41
2023/10/19 07:53:10;;;;;;;;;;;19.60;76.10;;;;;;5012198;27;89660;-41
2023/10/19 07:55:36;;;;;;;;;;;19.60;76.10;;;;;;5014255;27;90041;-41
2023/10/19 07:58:03;;;;;;;;;;;19.60;75.90;;;;;;5017162;27;89705;-40
2023/10/19 08:00:33;;;;;;;;;;;19.60;76.10;;;;;;5011439;27;89658;-42
2023/10/19 08:02:59;;;;;;;;;;;19.60;76.10;;;;;;5012789;27;89608;-41
2023/10/19 08:05:25;;;;;;;;;;;19.60;76.10;;;;;;5012934;27;94072;-42
2023/10/19 08:07:51;;;;;;;;;;;19.70;75.90;;;;;;5013677;27;89678;-41
2023/10/19 08:10:18;;;;;;;;;;;19.70;75.60;;;;;;5008751;27;93772;-40
2023/10/19 08:12:47;;;;;;;;;;;19.70;75.60;;;;;;4999074;27;89450;-41
2023/10/19 08:15:13;;;;;;;;;;;19.70;75.50;;;;;;5006782;27;90644;-40
2023/10/19 08:17:39;;;;;;;;;;;19.70;75.30;;;;;;5003723;27;90633;-40
2023/10/19 08:20:08;;;;;;;;;;;19.80;75.20;;;;;;5016129;27;90807;-40
2023/10/19 08:22:34;;;;;;;;;;;19.80;75.40;;;;;;5003810;27;89680;-38
2023/10/19 08:24:59;;;;;;;;;;;19.80;74.80;;;;;;5017019;27;90765;-39
2023/10/19 08:27:25;;;;;;;;;;;19.80;75.20;;;;;;5015904;27;91780;-40
2023/10/19 08:29:51;;;;;;;;;;;19.80;75.10;;;;;;5014766;27;89512;-39
2023/10/19 08:32:16;;;;;;;;;;;19.80;75.00;;;;;;5010679;27;89339;-40
2023/10/19 08:34:42;;;;;;;;;;;19.80;74.90;;;;;;5013230;27;90426;-39
2023/10/19 08:37:07;;;;;;;;;;;19.90;75.10;;;;;;5016875;27;89850;-39
2023/10/19 08:39:36;;;;;;;;;;;19.90;74.90;;;;;;5013906;27;89681;-41
2023/10/19 08:42:03;;;;;;;;;;;19.90;74.80;;;;;;5018238;27;89533;-43
2023/10/19 08:44:30;;;;;;;;;;;19.90;74.80;;;;;;5007198;27;91154;-40
2023/10/19 08:46:57;;;;;;;;;;;19.90;75.00;;;;;;5014157;27;89407;-40
2023/10/19 08:49:23;;;;;;;;;;;20.00;74.80;;;;;;5011592;27;89620;-40
2023/10/19 08:51:48;;;;;;;;;;;20.00;74.70;;;;;;5008710;27;88687;-43
2023/10/19 08:54:14;;;;;;;;;;;20.00;74.50;;;;;;5012735;27;89852;-42
2023/10/19 08:56:41;;;;;;;;;;;20.00;74.60;;;;;;5017173;27;90859;-43
2023/10/19 08:59:07;;;;;;;;;;;20.00;74.80;;;;;;5007125;27;92749;-41
2023/10/19 09:01:35;;;;;;;;;;;20.00;74.50;;;;;;5009823;27;89682;-40
2023/10/19 09:04:01;;;;;;;;;;;20.00;74.50;;;;;;5005717;27;90618;-39
2023/10/19 09:06:28;;;;;;;;;;;20.00;74.60;;;;;;5024136;27;90413;-39
2023/10/19 09:08:55;;;;;;;;;;;20.10;74.10;;;;;;5008882;27;89589;-38
2023/10/19 09:11:20;;;;;;;;;;;20.10;74.00;;;;;;5010843;27;89827;-42
2023/10/19 09:13:47;;;;;;;;;;;20.10;74.20;;;;;;5006686;27;90567;-38
2023/10/19 09:16:20;;;;;;;;;;;20.10;74.10;;;;;;5012954;27;91549;-38
2023/10/19 09:18:46;;;;;;;;;;;20.10;75.00;;;;;;5004503;27;90061;-38
2023/10/19 09:21:23;;;;;;;;;;;20.10;74.90;;;;;;5012280;27;89424;-42
2023/10/19 09:23:53;;;;;;;;;;;20.10;74.30;;;;;;5012765;27;93659;-40
2023/10/19 09:26:18;;;;;;;;;;;20.10;74.30;;;;;;5010992;27;89624;-40
2023/10/19 09:28:51;;;;;;;;;;;20.10;74.30;;;;;;5015912;27;89457;-39
2023/10/19 09:31:18;;;;;;;;;;;20.10;74.40;;;;;;5023838;27;89919;-39
2023/10/19 09:33:44;;;;;;;;;;;20.10;75.20;;;;;;5007356;27;89801;-40
2023/10/19 09:36:13;;;;;;;;;;;20.10;74.40;;;;;;5016936;27;90090;-40
2023/10/19 09:38:48;;;;;;;;;;;20.10;74.40;;;;;;5011803;27;89621;-42
2023/10/19 09:41:14;;;;;;;;;;;20.10;74.40;;;;;;5007468;27;88907;-43
2023/10/19 09:43:48;;;;;;;;;;;20.10;74.30;;;;;;5006885;27;89231;-42
2023/10/19 09:46:26;;;;;;;;;;;20.10;74.30;;;;;;5016474;27;89848;-42
2023/10/19 09:48:51;;;;;;;;;;;20.10;74.50;;;;;;5016129;27;90761;-42
2023/10/19 09:51:19;;;;;;;;;;;20.10;74.50;;;;;;5005320;27;89513;-44
2023/10/19 09:54:09;;;;;;;;;;;20.10;74.50;;;;;;5020767;27;90356;-41
2023/10/19 09:56:44;;;;;;;;;;;20.10;74.70;;;;;;5001619;27;89473;-41
2023/10/19 09:59:39;;;;;;;;;;;20.10;74.80;;;;;;5003130;27;90520;-39
2023/10/19 10:02:08;;;;;;;;;;;20.10;74.70;;;;;;4995737;27;91106;-40
2023/10/19 10:04:37;;;;;;;;;;;20.10;74.80;;;;;;5013459;27;89597;-42
2023/10/19 10:07:05;;;;;;;;;;;20.10;74.70;;;;;;5012843;27;90808;-42
2023/10/19 10:09:33;;;;;;;;;;;20.10;74.90;;;;;;5004168;27;92613;-43
2023/10/19 10:12:15;;;;;;;;;;;20.10;74.70;;;;;;5011856;27;91889;-42
2023/10/19 10:14:52;;;;;;;;;;;20.20;75.00;;;;;;5005044;27;92071;-40
2023/10/19 10:17:18;;;;;;;;;;;20.20;74.80;;;;;;5017626;27;90556;-40
2023/10/19 10:19:44;;;;;;;;;;;20.20;74.50;;;;;;5021881;27;89656;-40
2023/10/19 10:22:20;;;;;;;;;;;20.20;74.80;;;;;;5018080;27;89659;-40
2023/10/19 10:24:46;;;;;;;;;;;20.20;74.70;;;;;;5026050;27;92457;-40
2023/10/19 10:27:14;;;;;;;;;;;20.20;74.60;;;;;;5017145;27;91188;-40
2023/10/19 10:29:55;;;;;;;;;;;20.20;74.40;;;;;;5022564;27;89930;-41
2023/10/19 10:32:39;;;;;;;;;;;20.20;74.30;;;;;;5010275;27;88706;-40
2023/10/19 10:35:07;;;;;;;;;;;20.20;74.20;;;;;;5019649;27;89647;-40
2023/10/19 10:37:36;;;;;;;;;;;20.30;74.30;;;;;;5021755;27;92636;-40
2023/10/19 10:40:03;;;;;;;;;;;20.20;74.20;;;;;;5009247;27;90782;-40
2023/10/19 10:42:29;;;;;;;;;;;20.20;74.20;;;;;;5005974;27;92866;-41
2023/10/19 10:44:55;;;;;;;;;;;20.20;74.30;;;;;;5006464;27;90879;-40
2023/10/19 10:47:31;;;;;;;;;;;20.20;74.20;;;;;;4998450;27;90371;-40
2023/10/19 10:49:58;;;;;;;;;;;20.30;74.50;;;;;;5007718;27;90235;-39
2023/10/19 10:52:31;;;;;;;;;;;20.30;74.70;;;;;;4993792;27;90677;-40
2023/10/19 10:55:07;;;;;;;;;;;20.30;74.50;;;;;;5007530;27;90081;-44
2023/10/19 10:57:33;;;;;;;;;;;20.30;74.60;;;;;;5004762;27;90693;-45
2023/10/19 11:00:15;;;;;;;;;;;20.40;75.00;;;;;;5003719;27;89605;-40
2023/10/19 11:02:45;;;;;;;;;;;20.40;75.00;;;;;;5015583;27;89119;-47
2023/10/19 11:05:12;;;;;;;;;;;20.40;74.70;;;;;;5010086;27;91431;-43
2023/10/19 11:07:38;;;;;;;;;;;20.40;74.80;;;;;;5012594;27;89811;-41
2023/10/19 11:10:03;;;;;;;;;;;20.40;75.10;;;;;;5015149;27;89721;-39
2023/10/19 11:12:29;;;;;;;;;;;20.40;75.10;;;;;;5008438;27;90101;-39
2023/10/19 11:14:56;;;;;;;;;;;20.40;75.00;;;;;;5008531;27;89365;-45
2023/10/19 11:17:28;;;;;;;;;;;20.50;75.10;;;;;;5011032;27;89647;-44
2023/10/19 11:19:56;;;;;;;;;;;20.50;75.10;;;;;;5017657;27;89584;-42
2023/10/19 11:22:21;;;;;;;;;;;20.50;75.80;;;;;;5009061;27;89814;-44
2023/10/19 11:24:47;;;;;;;;;;;20.50;75.20;;;;;;5009793;27;89553;-43
2023/10/19 11:27:12;;;;;;;;;;;20.50;75.00;;;;;;5003966;27;90515;-42
2023/10/19 11:29:38;;;;;;;;;;;20.50;75.10;;;;;;5015019;27;90315;-40
2023/10/19 11:32:04;;;;;;;;;;;20.50;75.10;;;;;;5015443;27;90101;-40
2023/10/19 11:34:29;;;;;;;;;;;20.50;75.20;;;;;;5017773;27;90551;-42
2023/10/19 11:36:59;;;;;;;;;;;20.50;75.20;;;;;;5003415;27;91495;-42
2023/10/19 11:39:28;;;;;;;;;;;20.50;75.10;;;;;;4996157;27;89564;-39
2023/10/19 11:41:54;;;;;;;;;;;20.50;75.40;;;;;;5001701;27;89885;-38
2023/10/19 11:44:19;;;;;;;;;;;20.50;75.30;;;;;;5004208;27;90325;-39
2023/10/19 11:46:45;;;;;;;;;;;20.50;75.30;;;;;;5019820;27;90508;-38
2023/10/19 11:49:11;;;;;;;;;;;20.50;75.30;;;;;;5011478;27;90521;-39
2023/10/19 11:51:37;;;;;;;;;;;20.50;75.40;;;;;;5007125;27;89430;-38
2023/10/19 11:54:06;;;;;;;;;;;20.50;75.60;;;;;;5006065;27;90905;-39
2023/10/19 11:56:32;;;;;;;;;;;20.60;75.50;;;;;;5013339;27;91379;-41
2023/10/19 11:58:58;;;;;;;;;;;20.60;75.60;;;;;;5008121;27;89502;-41
2023/10/19 12:01:25;;;;;;;;;;;20.60;75.60;;;;;;5015249;27;89475;-39
2023/10/19 12:03:51;;;;;;;;;;;20.60;75.70;;;;;;4989743;27;89515;-41
2023/10/19 12:06:19;;;;;;;;;;;20.60;76.00;;;;;;4989202;28;89952;-40
2023/10/19 12:08:45;;;;;;;;;;;20.60;76.10;;;;;;4981822;28;91508;-38
2023/10/19 12:11:18;;;;;;;;;;;20.70;76.10;;;;;;4987572;28;89180;-39
2023/10/19 12:13:44;;;;;;;;;;;20.60;75.90;;;;;;4985746;28;89613;-39
2023/10/19 12:16:12;;;;;;;;;;;20.60;75.50;;;;;;4988647;28;89575;-39
2023/10/19 12:18:41;;;;;;;;;;;20.70;75.70;;;;;;4990578;28;91113;-41
2023/10/19 12:21:11;;;;;;;;;;;20.70;75.60;;;;;;4990283;28;89338;-40
2023/10/19 12:23:38;;;;;;;;;;;20.70;75.30;;;;;;4978149;28;89598;-39
2023/10/19 12:26:10;;;;;;;;;;;20.70;75.40;;;;;;4988319;28;90052;-38
2023/10/19 12:28:38;;;;;;;;;;;20.70;75.30;;;;;;4983638;28;90230;-39
2023/10/19 12:31:05;;;;;;;;;;;20.80;75.50;;;;;;4992448;28;89564;-40
2023/10/19 12:33:30;;;;;;;;;;;20.80;75.60;;;;;;4987959;28;90675;-38
2023/10/19 12:35:59;;;;;;;;;;;20.80;75.50;;;;;;4995247;28;88702;-38
2023/10/19 12:38:25;;;;;;;;;;;20.80;75.40;;;;;;4992123;28;89530;-40
2023/10/19 12:40:51;;;;;;;;;;;20.80;75.90;;;;;;4993635;28;89254;-39
2023/10/19 12:43:24;;;;;;;;;;;20.90;75.90;;;;;;4986691;28;94084;-40
2023/10/19 12:45:53;;;;;;;;;;;20.90;75.90;;;;;;4983113;28;90126;-40
2023/10/19 12:48:19;;;;;;;;;;;20.90;75.60;;;;;;4982334;28;90016;-40
2023/10/19 12:50:45;;;;;;;;;;;20.90;75.60;;;;;;4985651;28;91054;-37
2023/10/19 12:53:10;;;;;;;;;;;20.90;75.10;;;;;;4998277;28;89662;-41
2023/10/19 12:55:39;;;;;;;;;;;20.90;74.60;;;;;;4994681;28;90100;-42
2023/10/19 12:58:07;;;;;;;;;;;20.90;75.00;;;;;;5000507;28;90837;-40
2023/10/19 13:00:40;;;;;;;;;;;20.90;75.00;;;;;;4986813;28;89284;-40
2023/10/19 13:03:07;;;;;;;;;;;20.90;75.00;;;;;;5006664;27;92159;-39
2023/10/19 13:05:33;;;;;;;;;;;20.90;75.30;;;;;;4995516;27;94749;-38
2023/10/19 13:07:58;;;;;;;;;;;21.00;75.30;;;;;;5012054;27;94055;-39
2023/10/19 13:10:33;;;;;;;;;;;20.90;75.30;;;;;;5017630;27;89870;-38
2023/10/19 13:13:00;;;;;;;;;;;21.00;75.50;;;;;;5008855;27;89477;-41
2023/10/19 13:15:30;;;;;;;;;;;21.00;75.40;;;;;;5017485;27;91190;-42
2023/10/19 13:17:56;;;;;;;;;;;21.00;75.60;;;;;;4999709;27;93104;-42
2023/10/19 13:20:23;;;;;;;;;;;21.00;75.50;;;;;;5026601;27;90111;-41
2023/10/19 13:22:49;;;;;;;;;;;21.00;75.20;;;;;;5011507;27;89853;-42
2023/10/19 13:25:16;;;;;;;;;;;21.00;75.20;;;;;;5013555;27;88220;-42
2023/10/19 13:27:45;;;;;;;;;;;21.00;75.00;;;;;;5017686;27;88868;-43
2023/10/19 13:30:11;;;;;;;;;;;21.10;75.30;;;;;;5012457;27;92648;-43
2023/10/19 13:32:37;;;;;;;;;;;21.10;75.20;;;;;;5006523;27;90799;-40
2023/10/19 13:35:04;;;;;;;;;;;21.10;74.80;;;;;;5016272;27;90886;-40
2023/10/19 13:37:29;;;;;;;;;;;21.10;75.00;;;;;;5012573;27;89436;-39
2023/10/19 13:39:55;;;;;;;;;;;21.10;74.90;;;;;;5011484;27;89532;-39
2023/10/19 13:42:20;;;;;;;;;;;21.10;74.80;;;;;;4993810;27;90225;-40
2023/10/19 13:44:49;;;;;;;;;;;21.10;74.80;;;;;;5013896;27;90407;-38
2023/10/19 13:47:15;;;;;;;;;;;21.20;74.80;;;;;;5020403;27;96610;-41
2023/10/19 13:49:41;;;;;;;;;;;21.20;74.60;;;;;;5021870;27;89164;-39
2023/10/19 13:52:08;;;;;;;;;;;21.20;74.80;;;;;;5019733;27;90536;-39
2023/10/19 13:54:34;;;;;;;;;;;21.10;74.80;;;;;;5014812;27;90738;-40
2023/10/19 13:57:00;;;;;;;;;;;21.10;74.70;;;;;;5000468;27;91206;-40
2023/10/19 13:59:28;;;;;;;;;;;21.20;74.80;;;;;;5012698;27;89795;-40
2023/10/19 14:01:53;;;;;;;;;;;21.20;74.50;;;;;;5003668;27;90138;-40
2023/10/19 14:04:19;;;;;;;;;;;21.10;74.70;;;;;;5011647;27;90381;-40
2023/10/19 14:06:48;;;;;;;;;;;21.10;75.00;;;;;;5011627;27;89609;-40
2023/10/19 14:09:14;;;;;;;;;;;21.10;74.60;;;;;;5021081;27;89602;-40
2023/10/19 14:11:40;;;;;;;;;;;21.10;74.60;;;;;;4996246;27;90045;-40
2023/10/19 14:14:06;;;;;;;;;;;21.10;74.60;;;;;;5007941;27;91046;-40
2023/10/19 14:16:32;;;;;;;;;;;21.10;74.70;;;;;;5007339;27;90266;-41
2023/10/19 14:18:57;;;;;;;;;;;21.10;74.70;;;;;;5039979;22;90620;-74
2023/10/19 14:21:26;;;;;;;;;;;21.10;74.70;;;;;;5028807;27;90302;-75
2023/10/19 14:23:53;;;;;;;;;;;21.20;74.60;;;;;;5031368;27;91820;-75
2023/10/19 14:26:18;;;;;;;;;;;21.20;74.60;;;;;;5045772;22;89487;-40
2023/10/19 14:28:44;;;;;;;;;;;21.20;74.80;;;;;;5028250;27;89570;-40
2023/10/19 14:31:11;;;;;;;;;;;21.20;74.80;;;;;;5031409;27;91799;-42
2023/10/19 14:33:37;;;;;;;;;;;21.20;74.80;;;;;;5027140;27;95475;-39
2023/10/19 14:36:04;;;;;;;;;;;21.20;74.80;;;;;;5037157;27;91186;-39
2023/10/19 14:38:29;;;;;;;;;;;21.20;75.10;;;;;;5041140;27;89470;-40